sensor_id;sensor_type;location;lat;lon;timestamp;P1;durP1;ratioP1;P2;durP2;ratioP2
3747;SDS011;1889;50.058;8.688;2022-10-22T00:01:28;2.20;;;1.75;;
3747;SDS011;1889;50.058;8.688;2022-10-22T00:03:57;1.77;;;1.40;;
3747;SDS011;1889;50.058;8.688;2022-10-22T00:06:26;3.02;;;1.37;;
3747;SDS011;1889;50.058;8.688;2022-10-22T00:08:55;1.50;;;1.40;;
3747;SDS011;1889;50.058;8.688;2022-10-22T00:11:25;2.42;;;1.47;;
3747;SDS011;1889;50.058;8.688;2022-10-22T00:13:54;3.85;;;1.75;;
3747;SDS011;1889;50.058;8.688;2022-10-22T00:16:24;2.95;;;1.65;;
3747;SDS011;1889;50.058;8.688;2022-10-22T00:18:54;2.65;;;1.50;;
3747;SDS011;1889;50.058;8.688;2022-10-22T00:21:23;2.65;;;1.62;;
3747;SDS011;1889;50.058;8.688;2022-10-22T00:23:55;2.30;;;1.45;;
3747;SDS011;1889;50.058;8.688;2022-10-22T00:26:24;2.30;;;1.47;;
3747;SDS011;1889;50.058;8.688;2022-10-22T00:28:54;3.00;;;1.57;;
3747;SDS011;1889;50.058;8.688;2022-10-22T00:31:25;1.70;;;1.60;;
3747;SDS011;1889;50.058;8.688;2022-10-22T00:33:54;1.77;;;1.65;;
3747;SDS011;1889;50.058;8.688;2022-10-22T00:36:23;3.33;;;1.52;;
3747;SDS011;1889;50.058;8.688;2022-10-22T00:38:53;2.45;;;1.75;;
3747;SDS011;1889;50.058;8.688;2022-10-22T00:41:22;2.55;;;2.20;;
3747;SDS011;1889;50.058;8.688;2022-10-22T00:43:52;2.85;;;1.47;;
3747;SDS011;1889;50.058;8.688;2022-10-22T00:46:24;3.70;;;1.55;;
3747;SDS011;1889;50.058;8.688;2022-10-22T00:48:54;2.52;;;1.40;;
3747;SDS011;1889;50.058;8.688;2022-10-22T00:51:28;1.60;;;1.47;;
3747;SDS011;1889;50.058;8.688;2022-10-22T00:54:00;2.05;;;1.32;;
3747;SDS011;1889;50.058;8.688;2022-10-22T00:56:31;3.10;;;1.37;;
3747;SDS011;1889;50.058;8.688;2022-10-22T00:59:01;2.92;;;1.82;;
3747;SDS011;1889;50.058;8.688;2022-10-22T01:01:31;2.42;;;1.40;;
3747;SDS011;1889;50.058;8.688;2022-10-22T01:04:00;3.67;;;1.40;;
3747;SDS011;1889;50.058;8.688;2022-10-22T01:06:30;1.35;;;1.25;;
3747;SDS011;1889;50.058;8.688;2022-10-22T01:12:01;4.67;;;1.50;;
3747;SDS011;1889;50.058;8.688;2022-10-22T01:14:35;2.80;;;1.40;;
3747;SDS011;1889;50.058;8.688;2022-10-22T01:17:09;1.50;;;1.40;;
3747;SDS011;1889;50.058;8.688;2022-10-22T01:23:00;1.15;;;1.05;;
3747;SDS011;1889;50.058;8.688;2022-10-22T01:25:36;2.75;;;1.52;;
3747;SDS011;1889;50.058;8.688;2022-10-22T01:28:16;3.08;;;1.50;;
3747;SDS011;1889;50.058;8.688;2022-10-22T01:31:00;1.40;;;1.30;;
3747;SDS011;1889;50.058;8.688;2022-10-22T01:33:33;3.33;;;1.52;;
3747;SDS011;1889;50.058;8.688;2022-10-22T01:36:03;2.12;;;1.20;;
3747;SDS011;1889;50.058;8.688;2022-10-22T01:38:33;1.10;;;1.10;;
3747;SDS011;1889;50.058;8.688;2022-10-22T01:41:03;1.42;;;1.05;;
3747;SDS011;1889;50.058;8.688;2022-10-22T01:43:32;1.52;;;1.30;;
3747;SDS011;1889;50.058;8.688;2022-10-22T01:46:02;1.20;;;1.10;;
3747;SDS011;1889;50.058;8.688;2022-10-22T01:54:30;1.10;;;1.00;;
3747;SDS011;1889;50.058;8.688;2022-10-22T01:57:17;1.37;;;1.17;;
3747;SDS011;1889;50.058;8.688;2022-10-22T01:59:56;0.80;;;0.80;;
3747;SDS011;1889;50.058;8.688;2022-10-22T02:02:40;3.52;;;1.37;;
3747;SDS011;1889;50.058;8.688;2022-10-22T02:05:58;1.10;;;1.00;;
3747;SDS011;1889;50.058;8.688;2022-10-22T02:08:05;0.90;;;0.90;;
3747;SDS011;1889;50.058;8.688;2022-10-22T02:10:36;1.30;;;1.15;;
3747;SDS011;1889;50.058;8.688;2022-10-22T02:13:08;3.50;;;0.98;;
3747;SDS011;1889;50.058;8.688;2022-10-22T02:15:39;2.80;;;0.82;;
3747;SDS011;1889;50.058;8.688;2022-10-22T02:18:12;0.80;;;0.80;;
3747;SDS011;1889;50.058;8.688;2022-10-22T02:20:43;0.80;;;0.70;;
3747;SDS011;1889;50.058;8.688;2022-10-22T02:23:12;1.42;;;1.10;;
3747;SDS011;1889;50.058;8.688;2022-10-22T02:25:43;1.00;;;0.90;;
3747;SDS011;1889;50.058;8.688;2022-10-22T02:28:22;1.00;;;0.75;;
3747;SDS011;1889;50.058;8.688;2022-10-22T02:30:54;1.05;;;0.72;;
3747;SDS011;1889;50.058;8.688;2022-10-22T02:33:36;1.20;;;0.85;;
3747;SDS011;1889;50.058;8.688;2022-10-22T02:35:57;2.20;;;0.90;;
3747;SDS011;1889;50.058;8.688;2022-10-22T02:38:28;2.12;;;0.90;;
3747;SDS011;1889;50.058;8.688;2022-10-22T02:40:59;1.30;;;0.85;;
3747;SDS011;1889;50.058;8.688;2022-10-22T02:43:30;1.62;;;0.88;;
3747;SDS011;1889;50.058;8.688;2022-10-22T02:46:00;1.35;;;1.10;;
3747;SDS011;1889;50.058;8.688;2022-10-22T02:48:30;1.00;;;0.90;;
3747;SDS011;1889;50.058;8.688;2022-10-22T02:50:59;1.72;;;0.80;;
3747;SDS011;1889;50.058;8.688;2022-10-22T02:53:30;0.68;;;0.68;;
3747;SDS011;1889;50.058;8.688;2022-10-22T02:56:00;1.98;;;0.90;;
3747;SDS011;1889;50.058;8.688;2022-10-22T02:58:29;2.40;;;0.90;;
3747;SDS011;1889;50.058;8.688;2022-10-22T03:00:58;0.68;;;0.62;;
3747;SDS011;1889;50.058;8.688;2022-10-22T03:03:28;0.80;;;0.60;;
3747;SDS011;1889;50.058;8.688;2022-10-22T03:05:57;0.60;;;0.55;;
3747;SDS011;1889;50.058;8.688;2022-10-22T03:08:26;1.15;;;0.85;;
3747;SDS011;1889;50.058;8.688;2022-10-22T03:10:56;0.70;;;0.70;;
3747;SDS011;1889;50.058;8.688;2022-10-22T03:13:25;1.05;;;0.70;;
3747;SDS011;1889;50.058;8.688;2022-10-22T03:15:54;1.15;;;0.80;;
3747;SDS011;1889;50.058;8.688;2022-10-22T03:18:23;0.82;;;0.82;;
3747;SDS011;1889;50.058;8.688;2022-10-22T03:21:07;1.25;;;0.70;;
3747;SDS011;1889;50.058;8.688;2022-10-22T03:23:46;2.22;;;1.12;;
3747;SDS011;1889;50.058;8.688;2022-10-22T03:26:16;1.12;;;0.88;;
3747;SDS011;1889;50.058;8.688;2022-10-22T03:28:46;1.25;;;1.15;;
3747;SDS011;1889;50.058;8.688;2022-10-22T03:31:15;1.02;;;0.85;;
3747;SDS011;1889;50.058;8.688;2022-10-22T03:33:44;1.00;;;0.80;;
3747;SDS011;1889;50.058;8.688;2022-10-22T03:36:14;0.70;;;0.70;;
3747;SDS011;1889;50.058;8.688;2022-10-22T03:38:43;1.75;;;0.88;;
3747;SDS011;1889;50.058;8.688;2022-10-22T03:41:14;1.10;;;0.90;;
3747;SDS011;1889;50.058;8.688;2022-10-22T03:43:43;0.62;;;0.62;;
3747;SDS011;1889;50.058;8.688;2022-10-22T03:46:14;4.42;;;0.90;;
3747;SDS011;1889;50.058;8.688;2022-10-22T03:48:45;3.55;;;0.70;;
3747;SDS011;1889;50.058;8.688;2022-10-22T03:51:14;0.70;;;0.70;;
3747;SDS011;1889;50.058;8.688;2022-10-22T03:53:44;4.95;;;0.80;;
3747;SDS011;1889;50.058;8.688;2022-10-22T03:56:13;2.60;;;0.85;;
3747;SDS011;1889;50.058;8.688;2022-10-22T03:58:42;0.90;;;0.75;;
3747;SDS011;1889;50.058;8.688;2022-10-22T04:01:12;0.70;;;0.70;;
3747;SDS011;1889;50.058;8.688;2022-10-22T04:03:42;1.05;;;1.05;;
3747;SDS011;1889;50.058;8.688;2022-10-22T04:06:11;1.67;;;0.60;;
3747;SDS011;1889;50.058;8.688;2022-10-22T04:08:41;0.65;;;0.65;;
3747;SDS011;1889;50.058;8.688;2022-10-22T04:11:12;1.02;;;0.80;;
3747;SDS011;1889;50.058;8.688;2022-10-22T04:13:43;0.65;;;0.55;;
3747;SDS011;1889;50.058;8.688;2022-10-22T04:16:18;0.80;;;0.80;;
3747;SDS011;1889;50.058;8.688;2022-10-22T04:18:49;0.70;;;0.70;;
3747;SDS011;1889;50.058;8.688;2022-10-22T04:21:18;0.60;;;0.60;;
3747;SDS011;1889;50.058;8.688;2022-10-22T04:23:49;4.85;;;0.85;;
3747;SDS011;1889;50.058;8.688;2022-10-22T04:26:19;0.62;;;0.62;;
3747;SDS011;1889;50.058;8.688;2022-10-22T04:28:49;0.80;;;0.70;;
3747;SDS011;1889;50.058;8.688;2022-10-22T04:31:20;1.50;;;0.50;;
3747;SDS011;1889;50.058;8.688;2022-10-22T04:33:52;1.92;;;0.75;;
3747;SDS011;1889;50.058;8.688;2022-10-22T04:36:22;0.47;;;0.47;;
3747;SDS011;1889;50.058;8.688;2022-10-22T04:38:54;0.70;;;0.60;;
3747;SDS011;1889;50.058;8.688;2022-10-22T04:41:31;0.82;;;0.62;;
3747;SDS011;1889;50.058;8.688;2022-10-22T04:44:02;0.60;;;0.60;;
3747;SDS011;1889;50.058;8.688;2022-10-22T04:46:33;0.70;;;0.70;;
3747;SDS011;1889;50.058;8.688;2022-10-22T04:49:03;2.80;;;0.60;;
3747;SDS011;1889;50.058;8.688;2022-10-22T04:51:32;1.30;;;0.82;;
3747;SDS011;1889;50.058;8.688;2022-10-22T04:54:01;0.65;;;0.65;;
3747;SDS011;1889;50.058;8.688;2022-10-22T04:56:31;1.25;;;0.80;;
3747;SDS011;1889;50.058;8.688;2022-10-22T04:59:01;1.52;;;1.00;;
3747;SDS011;1889;50.058;8.688;2022-10-22T05:01:37;0.55;;;0.53;;
3747;SDS011;1889;50.058;8.688;2022-10-22T05:04:08;0.40;;;0.40;;
3747;SDS011;1889;50.058;8.688;2022-10-22T05:06:43;0.60;;;0.60;;
3747;SDS011;1889;50.058;8.688;2022-10-22T05:09:13;1.40;;;0.70;;
3747;SDS011;1889;50.058;8.688;2022-10-22T05:11:47;1.07;;;0.80;;
3747;SDS011;1889;50.058;8.688;2022-10-22T05:14:18;0.75;;;0.75;;
3747;SDS011;1889;50.058;8.688;2022-10-22T05:16:49;0.80;;;0.78;;
3747;SDS011;1889;50.058;8.688;2022-10-22T05:19:20;0.50;;;0.50;;
3747;SDS011;1889;50.058;8.688;2022-10-22T05:21:52;1.00;;;0.90;;
3747;SDS011;1889;50.058;8.688;2022-10-22T05:24:24;1.27;;;0.68;;
3747;SDS011;1889;50.058;8.688;2022-10-22T05:26:55;0.90;;;0.60;;
3747;SDS011;1889;50.058;8.688;2022-10-22T05:29:25;1.07;;;0.70;;
3747;SDS011;1889;50.058;8.688;2022-10-22T05:31:54;0.82;;;0.70;;
3747;SDS011;1889;50.058;8.688;2022-10-22T05:34:24;0.50;;;0.50;;
3747;SDS011;1889;50.058;8.688;2022-10-22T05:36:53;2.33;;;0.95;;
3747;SDS011;1889;50.058;8.688;2022-10-22T05:39:22;0.62;;;0.62;;
3747;SDS011;1889;50.058;8.688;2022-10-22T05:41:52;1.00;;;0.90;;
3747;SDS011;1889;50.058;8.688;2022-10-22T05:44:21;1.45;;;0.55;;
3747;SDS011;1889;50.058;8.688;2022-10-22T05:46:50;0.60;;;0.60;;
3747;SDS011;1889;50.058;8.688;2022-10-22T05:49:20;3.10;;;0.88;;
3747;SDS011;1889;50.058;8.688;2022-10-22T05:51:49;0.68;;;0.68;;
3747;SDS011;1889;50.058;8.688;2022-10-22T05:54:19;0.62;;;0.60;;
3747;SDS011;1889;50.058;8.688;2022-10-22T05:56:51;2.02;;;0.60;;
3747;SDS011;1889;50.058;8.688;2022-10-22T05:59:21;1.80;;;0.85;;
3747;SDS011;1889;50.058;8.688;2022-10-22T06:01:50;0.70;;;0.70;;
3747;SDS011;1889;50.058;8.688;2022-10-22T06:04:20;0.78;;;0.70;;
3747;SDS011;1889;50.058;8.688;2022-10-22T06:06:49;0.85;;;0.82;;
3747;SDS011;1889;50.058;8.688;2022-10-22T06:09:28;1.95;;;0.70;;
3747;SDS011;1889;50.058;8.688;2022-10-22T06:12:02;1.05;;;0.40;;
3747;SDS011;1889;50.058;8.688;2022-10-22T06:14:33;2.00;;;0.78;;
3747;SDS011;1889;50.058;8.688;2022-10-22T06:17:02;1.35;;;0.80;;
3747;SDS011;1889;50.058;8.688;2022-10-22T06:19:32;0.75;;;0.70;;
3747;SDS011;1889;50.058;8.688;2022-10-22T06:22:02;0.70;;;0.70;;
3747;SDS011;1889;50.058;8.688;2022-10-22T06:24:32;1.02;;;0.90;;
3747;SDS011;1889;50.058;8.688;2022-10-22T06:27:01;1.37;;;0.75;;
3747;SDS011;1889;50.058;8.688;2022-10-22T06:29:31;0.88;;;0.62;;
3747;SDS011;1889;50.058;8.688;2022-10-22T06:32:00;1.32;;;1.05;;
3747;SDS011;1889;50.058;8.688;2022-10-22T06:34:29;0.40;;;0.40;;
3747;SDS011;1889;50.058;8.688;2022-10-22T06:36:59;0.60;;;0.60;;
3747;SDS011;1889;50.058;8.688;2022-10-22T06:39:28;1.35;;;0.50;;
3747;SDS011;1889;50.058;8.688;2022-10-22T06:41:57;1.22;;;0.50;;
3747;SDS011;1889;50.058;8.688;2022-10-22T06:44:27;0.62;;;0.62;;
3747;SDS011;1889;50.058;8.688;2022-10-22T06:46:56;1.75;;;0.68;;
3747;SDS011;1889;50.058;8.688;2022-10-22T06:49:25;0.47;;;0.47;;
3747;SDS011;1889;50.058;8.688;2022-10-22T06:51:55;0.75;;;0.62;;
3747;SDS011;1889;50.058;8.688;2022-10-22T06:54:24;1.60;;;0.60;;
3747;SDS011;1889;50.058;8.688;2022-10-22T06:56:53;0.70;;;0.60;;
3747;SDS011;1889;50.058;8.688;2022-10-22T06:59:23;1.45;;;0.70;;
3747;SDS011;1889;50.058;8.688;2022-10-22T07:01:52;0.50;;;0.50;;
3747;SDS011;1889;50.058;8.688;2022-10-22T07:04:21;0.98;;;0.82;;
3747;SDS011;1889;50.058;8.688;2022-10-22T07:06:53;0.50;;;0.50;;
3747;SDS011;1889;50.058;8.688;2022-10-22T07:09:24;0.60;;;0.60;;
3747;SDS011;1889;50.058;8.688;2022-10-22T07:11:53;0.98;;;0.62;;
3747;SDS011;1889;50.058;8.688;2022-10-22T07:14:22;0.60;;;0.60;;
3747;SDS011;1889;50.058;8.688;2022-10-22T07:16:52;0.57;;;0.57;;
3747;SDS011;1889;50.058;8.688;2022-10-22T07:19:21;1.32;;;0.60;;
3747;SDS011;1889;50.058;8.688;2022-10-22T07:21:50;1.80;;;0.60;;
3747;SDS011;1889;50.058;8.688;2022-10-22T07:24:20;1.35;;;0.53;;
3747;SDS011;1889;50.058;8.688;2022-10-22T07:26:49;0.60;;;0.60;;
3747;SDS011;1889;50.058;8.688;2022-10-22T07:29:18;1.10;;;0.50;;
3747;SDS011;1889;50.058;8.688;2022-10-22T07:31:47;0.40;;;0.37;;
3747;SDS011;1889;50.058;8.688;2022-10-22T07:34:16;0.88;;;0.50;;
3747;SDS011;1889;50.058;8.688;2022-10-22T07:36:46;0.62;;;0.40;;
3747;SDS011;1889;50.058;8.688;2022-10-22T07:39:15;1.27;;;0.60;;
3747;SDS011;1889;50.058;8.688;2022-10-22T07:41:44;0.85;;;0.57;;
3747;SDS011;1889;50.058;8.688;2022-10-22T07:44:13;0.57;;;0.40;;
3747;SDS011;1889;50.058;8.688;2022-10-22T07:46:43;1.25;;;0.50;;
3747;SDS011;1889;50.058;8.688;2022-10-22T07:49:12;0.50;;;0.50;;
3747;SDS011;1889;50.058;8.688;2022-10-22T07:51:41;0.60;;;0.60;;
3747;SDS011;1889;50.058;8.688;2022-10-22T07:54:11;3.20;;;0.50;;
3747;SDS011;1889;50.058;8.688;2022-10-22T07:56:41;0.60;;;0.50;;
3747;SDS011;1889;50.058;8.688;2022-10-22T07:59:10;0.98;;;0.60;;
3747;SDS011;1889;50.058;8.688;2022-10-22T08:01:39;2.33;;;0.62;;
3747;SDS011;1889;50.058;8.688;2022-10-22T08:04:10;0.23;;;0.20;;
3747;SDS011;1889;50.058;8.688;2022-10-22T08:06:39;1.47;;;0.50;;
3747;SDS011;1889;50.058;8.688;2022-10-22T08:09:09;1.65;;;0.62;;
3747;SDS011;1889;50.058;8.688;2022-10-22T08:11:38;1.40;;;0.42;;
3747;SDS011;1889;50.058;8.688;2022-10-22T08:14:07;1.47;;;0.45;;
3747;SDS011;1889;50.058;8.688;2022-10-22T08:16:37;1.82;;;0.50;;
3747;SDS011;1889;50.058;8.688;2022-10-22T08:19:06;0.78;;;0.50;;
3747;SDS011;1889;50.058;8.688;2022-10-22T08:21:35;0.40;;;0.40;;
3747;SDS011;1889;50.058;8.688;2022-10-22T08:24:10;1.42;;;0.33;;
3747;SDS011;1889;50.058;8.688;2022-10-22T08:26:40;0.40;;;0.40;;
3747;SDS011;1889;50.058;8.688;2022-10-22T08:29:09;0.50;;;0.30;;
3747;SDS011;1889;50.058;8.688;2022-10-22T08:31:38;1.32;;;0.40;;
3747;SDS011;1889;50.058;8.688;2022-10-22T08:34:07;0.53;;;0.43;;
3747;SDS011;1889;50.058;8.688;2022-10-22T08:36:37;2.58;;;0.65;;
3747;SDS011;1889;50.058;8.688;2022-10-22T08:39:06;0.47;;;0.27;;
3747;SDS011;1889;50.058;8.688;2022-10-22T08:41:35;0.30;;;0.30;;
3747;SDS011;1889;50.058;8.688;2022-10-22T08:47:08;0.20;;;0.20;;
3747;SDS011;1889;50.058;8.688;2022-10-22T08:49:41;0.20;;;0.20;;
3747;SDS011;1889;50.058;8.688;2022-10-22T08:52:15;1.12;;;0.37;;
3747;SDS011;1889;50.058;8.688;2022-10-22T08:54:52;0.60;;;0.60;;
3747;SDS011;1889;50.058;8.688;2022-10-22T09:02:42;0.47;;;0.37;;
3747;SDS011;1889;50.058;8.688;2022-10-22T09:05:30;1.65;;;0.20;;
3747;SDS011;1889;50.058;8.688;2022-10-22T09:08:12;1.27;;;0.10;;
3747;SDS011;1889;50.058;8.688;2022-10-22T09:10:45;2.58;;;0.60;;
3747;SDS011;1889;50.058;8.688;2022-10-22T09:13:17;0.40;;;0.30;;
3747;SDS011;1889;50.058;8.688;2022-10-22T09:15:50;0.50;;;0.30;;
3747;SDS011;1889;50.058;8.688;2022-10-22T09:18:27;1.55;;;0.40;;
3747;SDS011;1889;50.058;8.688;2022-10-22T09:21:12;0.20;;;0.20;;
3747;SDS011;1889;50.058;8.688;2022-10-22T09:23:58;1.32;;;0.23;;
3747;SDS011;1889;50.058;8.688;2022-10-22T09:26:33;0.30;;;0.30;;
3747;SDS011;1889;50.058;8.688;2022-10-22T09:29:04;0.40;;;0.40;;
3747;SDS011;1889;50.058;8.688;2022-10-22T09:31:33;0.30;;;0.30;;
3747;SDS011;1889;50.058;8.688;2022-10-22T09:34:02;0.20;;;0.20;;
3747;SDS011;1889;50.058;8.688;2022-10-22T09:36:35;0.97;;;0.40;;
3747;SDS011;1889;50.058;8.688;2022-10-22T09:39:19;2.17;;;0.50;;
3747;SDS011;1889;50.058;8.688;2022-10-22T09:41:49;0.40;;;0.40;;
3747;SDS011;1889;50.058;8.688;2022-10-22T09:44:19;1.85;;;0.40;;
3747;SDS011;1889;50.058;8.688;2022-10-22T09:46:50;2.12;;;0.50;;
3747;SDS011;1889;50.058;8.688;2022-10-22T09:49:20;2.17;;;0.80;;
3747;SDS011;1889;50.058;8.688;2022-10-22T09:57:12;0.30;;;0.30;;
3747;SDS011;1889;50.058;8.688;2022-10-22T09:59:46;2.62;;;0.37;;
3747;SDS011;1889;50.058;8.688;2022-10-22T10:02:19;0.30;;;0.23;;
3747;SDS011;1889;50.058;8.688;2022-10-22T10:04:51;1.07;;;0.40;;
3747;SDS011;1889;50.058;8.688;2022-10-22T10:07:24;0.57;;;0.50;;
3747;SDS011;1889;50.058;8.688;2022-10-22T10:09:56;0.30;;;0.20;;
3747;SDS011;1889;50.058;8.688;2022-10-22T10:12:29;0.30;;;0.30;;
3747;SDS011;1889;50.058;8.688;2022-10-22T10:21:00;0.97;;;0.50;;
3747;SDS011;1889;50.058;8.688;2022-10-22T10:34:42;1.90;;;0.40;;
3747;SDS011;1889;50.058;8.688;2022-10-22T10:37:23;1.33;;;0.40;;
3747;SDS011;1889;50.058;8.688;2022-10-22T10:45:21;0.73;;;0.70;;
3747;SDS011;1889;50.058;8.688;2022-10-22T10:56:40;0.67;;;0.60;;
3747;SDS011;1889;50.058;8.688;2022-10-22T11:05:33;0.33;;;0.33;;
3747;SDS011;1889;50.058;8.688;2022-10-22T11:08:13;1.73;;;0.50;;
3747;SDS011;1889;50.058;8.688;2022-10-22T11:10:44;1.07;;;0.60;;
3747;SDS011;1889;50.058;8.688;2022-10-22T11:13:25;1.60;;;0.40;;
3747;SDS011;1889;50.058;8.688;2022-10-22T11:16:09;0.60;;;0.40;;
3747;SDS011;1889;50.058;8.688;2022-10-22T11:19:02;1.47;;;0.47;;
3747;SDS011;1889;50.058;8.688;2022-10-22T11:24:19;0.77;;;0.40;;
3747;SDS011;1889;50.058;8.688;2022-10-22T11:26:52;0.50;;;0.40;;
3747;SDS011;1889;50.058;8.688;2022-10-22T11:29:32;2.90;;;0.37;;
3747;SDS011;1889;50.058;8.688;2022-10-22T11:31:57;1.07;;;0.67;;
3747;SDS011;1889;50.058;8.688;2022-10-22T11:34:32;0.70;;;0.50;;
3747;SDS011;1889;50.058;8.688;2022-10-22T11:37:02;0.63;;;0.60;;
3747;SDS011;1889;50.058;8.688;2022-10-22T11:42:09;2.10;;;0.70;;
3747;SDS011;1889;50.058;8.688;2022-10-22T11:44:46;0.80;;;0.80;;
3747;SDS011;1889;50.058;8.688;2022-10-22T11:47:19;0.80;;;0.60;;
3747;SDS011;1889;50.058;8.688;2022-10-22T11:49:57;0.83;;;0.80;;
3747;SDS011;1889;50.058;8.688;2022-10-22T11:53:03;1.70;;;0.50;;
3747;SDS011;1889;50.058;8.688;2022-10-22T12:03:41;0.87;;;0.50;;
3747;SDS011;1889;50.058;8.688;2022-10-22T12:14:22;0.97;;;0.50;;
3747;SDS011;1889;50.058;8.688;2022-10-22T12:16:55;0.60;;;0.40;;
3747;SDS011;1889;50.058;8.688;2022-10-22T12:19:48;0.80;;;0.80;;
3747;SDS011;1889;50.058;8.688;2022-10-22T12:22:31;2.23;;;0.43;;
3747;SDS011;1889;50.058;8.688;2022-10-22T12:25:23;0.40;;;0.40;;
3747;SDS011;1889;50.058;8.688;2022-10-22T12:27:55;1.33;;;0.50;;
3747;SDS011;1889;50.058;8.688;2022-10-22T12:30:29;0.77;;;0.60;;
3747;SDS011;1889;50.058;8.688;2022-10-22T12:33:03;0.50;;;0.47;;
3747;SDS011;1889;50.058;8.688;2022-10-22T12:35:34;1.00;;;0.70;;
3747;SDS011;1889;50.058;8.688;2022-10-22T12:38:13;0.63;;;0.50;;
3747;SDS011;1889;50.058;8.688;2022-10-22T12:40:44;1.07;;;0.63;;
3747;SDS011;1889;50.058;8.688;2022-10-22T12:43:14;0.93;;;0.93;;
3747;SDS011;1889;50.058;8.688;2022-10-22T12:45:45;1.17;;;0.57;;
3747;SDS011;1889;50.058;8.688;2022-10-22T12:48:23;0.90;;;0.47;;
3747;SDS011;1889;50.058;8.688;2022-10-22T12:51:01;2.47;;;0.77;;
3747;SDS011;1889;50.058;8.688;2022-10-22T12:53:34;0.60;;;0.50;;
3747;SDS011;1889;50.058;8.688;2022-10-22T12:56:12;1.37;;;0.47;;
3747;SDS011;1889;50.058;8.688;2022-10-22T12:58:47;1.57;;;0.50;;
3747;SDS011;1889;50.058;8.688;2022-10-22T13:01:17;0.90;;;0.33;;
3747;SDS011;1889;50.058;8.688;2022-10-22T13:04:03;0.30;;;0.30;;
3747;SDS011;1889;50.058;8.688;2022-10-22T13:11:31;1.70;;;0.60;;
3747;SDS011;1889;50.058;8.688;2022-10-22T13:14:03;2.87;;;0.70;;
3747;SDS011;1889;50.058;8.688;2022-10-22T13:16:33;1.10;;;0.57;;
3747;SDS011;1889;50.058;8.688;2022-10-22T13:19:02;0.70;;;0.70;;
3747;SDS011;1889;50.058;8.688;2022-10-22T13:21:33;1.47;;;0.47;;
3747;SDS011;1889;50.058;8.688;2022-10-22T13:24:19;1.87;;;0.43;;
3747;SDS011;1889;50.058;8.688;2022-10-22T13:26:51;0.30;;;0.30;;
3747;SDS011;1889;50.058;8.688;2022-10-22T13:29:21;1.53;;;0.50;;
3747;SDS011;1889;50.058;8.688;2022-10-22T13:31:52;1.27;;;0.80;;
3747;SDS011;1889;50.058;8.688;2022-10-22T13:34:22;0.90;;;0.50;;
3747;SDS011;1889;50.058;8.688;2022-10-22T13:36:52;2.00;;;1.03;;
3747;SDS011;1889;50.058;8.688;2022-10-22T13:39:22;1.23;;;0.50;;
3747;SDS011;1889;50.058;8.688;2022-10-22T13:41:52;3.00;;;0.80;;
3747;SDS011;1889;50.058;8.688;2022-10-22T13:44:21;0.63;;;0.40;;
3747;SDS011;1889;50.058;8.688;2022-10-22T13:46:50;3.53;;;0.60;;
3747;SDS011;1889;50.058;8.688;2022-10-22T13:49:19;1.17;;;0.77;;
3747;SDS011;1889;50.058;8.688;2022-10-22T13:51:51;2.77;;;0.50;;
3747;SDS011;1889;50.058;8.688;2022-10-22T13:54:21;4.03;;;0.70;;
3747;SDS011;1889;50.058;8.688;2022-10-22T13:56:51;1.60;;;0.40;;
3747;SDS011;1889;50.058;8.688;2022-10-22T13:59:20;1.00;;;0.50;;
3747;SDS011;1889;50.058;8.688;2022-10-22T14:01:49;3.70;;;0.47;;
3747;SDS011;1889;50.058;8.688;2022-10-22T14:04:20;0.50;;;0.50;;
3747;SDS011;1889;50.058;8.688;2022-10-22T14:06:50;0.40;;;0.30;;
3747;SDS011;1889;50.058;8.688;2022-10-22T14:09:19;0.50;;;0.50;;
3747;SDS011;1889;50.058;8.688;2022-10-22T14:11:48;1.23;;;0.50;;
3747;SDS011;1889;50.058;8.688;2022-10-22T14:14:17;1.33;;;0.50;;
3747;SDS011;1889;50.058;8.688;2022-10-22T14:16:46;3.13;;;0.70;;
3747;SDS011;1889;50.058;8.688;2022-10-22T14:19:15;0.53;;;0.50;;
3747;SDS011;1889;50.058;8.688;2022-10-22T14:21:45;0.80;;;0.70;;
3747;SDS011;1889;50.058;8.688;2022-10-22T14:24:15;0.97;;;0.57;;
3747;SDS011;1889;50.058;8.688;2022-10-22T14:26:44;1.67;;;0.43;;
3747;SDS011;1889;50.058;8.688;2022-10-22T14:29:13;1.90;;;0.50;;
3747;SDS011;1889;50.058;8.688;2022-10-22T14:31:42;2.03;;;0.50;;
3747;SDS011;1889;50.058;8.688;2022-10-22T14:34:13;3.03;;;0.60;;
3747;SDS011;1889;50.058;8.688;2022-10-22T14:36:42;1.00;;;0.90;;
3747;SDS011;1889;50.058;8.688;2022-10-22T14:39:12;5.30;;;0.93;;
3747;SDS011;1889;50.058;8.688;2022-10-22T14:41:41;2.37;;;0.57;;
3747;SDS011;1889;50.058;8.688;2022-10-22T14:44:11;1.30;;;0.40;;
3747;SDS011;1889;50.058;8.688;2022-10-22T14:46:40;1.80;;;0.60;;
3747;SDS011;1889;50.058;8.688;2022-10-22T14:49:10;0.70;;;0.47;;
3747;SDS011;1889;50.058;8.688;2022-10-22T14:51:40;2.80;;;0.60;;
3747;SDS011;1889;50.058;8.688;2022-10-22T14:54:09;0.90;;;0.60;;
3747;SDS011;1889;50.058;8.688;2022-10-22T14:56:38;2.57;;;0.90;;
3747;SDS011;1889;50.058;8.688;2022-10-22T14:59:07;1.00;;;0.70;;
3747;SDS011;1889;50.058;8.688;2022-10-22T15:01:36;1.40;;;0.50;;
3747;SDS011;1889;50.058;8.688;2022-10-22T15:04:05;5.07;;;0.80;;
3747;SDS011;1889;50.058;8.688;2022-10-22T15:06:34;1.47;;;0.60;;
3747;SDS011;1889;50.058;8.688;2022-10-22T15:09:03;1.33;;;0.50;;
3747;SDS011;1889;50.058;8.688;2022-10-22T15:11:32;0.80;;;0.70;;
3747;SDS011;1889;50.058;8.688;2022-10-22T15:14:01;1.87;;;0.70;;
3747;SDS011;1889;50.058;8.688;2022-10-22T15:16:30;1.70;;;0.43;;
3747;SDS011;1889;50.058;8.688;2022-10-22T15:18:59;1.47;;;0.70;;
3747;SDS011;1889;50.058;8.688;2022-10-22T15:21:30;1.80;;;0.70;;
3747;SDS011;1889;50.058;8.688;2022-10-22T15:23:59;2.50;;;0.67;;
3747;SDS011;1889;50.058;8.688;2022-10-22T15:26:28;1.03;;;0.50;;
3747;SDS011;1889;50.058;8.688;2022-10-22T15:28:57;1.07;;;0.60;;
3747;SDS011;1889;50.058;8.688;2022-10-22T15:31:46;1.80;;;0.63;;
3747;SDS011;1889;50.058;8.688;2022-10-22T15:34:17;1.40;;;0.53;;
3747;SDS011;1889;50.058;8.688;2022-10-22T15:36:49;1.43;;;0.70;;
3747;SDS011;1889;50.058;8.688;2022-10-22T15:39:18;2.60;;;1.20;;
3747;SDS011;1889;50.058;8.688;2022-10-22T15:41:48;0.83;;;0.83;;
3747;SDS011;1889;50.058;8.688;2022-10-22T15:44:21;1.40;;;0.87;;
3747;SDS011;1889;50.058;8.688;2022-10-22T15:46:53;0.90;;;0.90;;
3747;SDS011;1889;50.058;8.688;2022-10-22T15:49:23;2.10;;;1.10;;
3747;SDS011;1889;50.058;8.688;2022-10-22T15:51:53;1.70;;;1.17;;
3747;SDS011;1889;50.058;8.688;2022-10-22T15:54:24;2.37;;;0.77;;
3747;SDS011;1889;50.058;8.688;2022-10-22T15:56:55;2.63;;;1.00;;
3747;SDS011;1889;50.058;8.688;2022-10-22T15:59:25;1.00;;;0.90;;
3747;SDS011;1889;50.058;8.688;2022-10-22T16:01:54;2.17;;;0.87;;
3747;SDS011;1889;50.058;8.688;2022-10-22T16:04:24;2.10;;;1.33;;
3747;SDS011;1889;50.058;8.688;2022-10-22T16:06:54;5.50;;;0.90;;
3747;SDS011;1889;50.058;8.688;2022-10-22T16:09:24;3.80;;;1.27;;
3747;SDS011;1889;50.058;8.688;2022-10-22T16:11:55;2.35;;;1.60;;
3747;SDS011;1889;50.058;8.688;2022-10-22T16:14:24;1.70;;;1.37;;
3747;SDS011;1889;50.058;8.688;2022-10-22T16:16:55;1.27;;;0.90;;
3747;SDS011;1889;50.058;8.688;2022-10-22T16:19:25;5.93;;;1.23;;
3747;SDS011;1889;50.058;8.688;2022-10-22T16:21:55;2.10;;;0.90;;
3747;SDS011;1889;50.058;8.688;2022-10-22T16:24:25;1.90;;;1.00;;
3747;SDS011;1889;50.058;8.688;2022-10-22T16:26:54;1.87;;;0.80;;
3747;SDS011;1889;50.058;8.688;2022-10-22T16:29:23;2.70;;;1.10;;
3747;SDS011;1889;50.058;8.688;2022-10-22T16:31:52;4.58;;;1.20;;
3747;SDS011;1889;50.058;8.688;2022-10-22T16:34:21;1.60;;;0.80;;
3747;SDS011;1889;50.058;8.688;2022-10-22T16:36:52;2.20;;;0.90;;
3747;SDS011;1889;50.058;8.688;2022-10-22T16:39:22;1.47;;;1.33;;
3747;SDS011;1889;50.058;8.688;2022-10-22T16:41:52;2.03;;;0.80;;
3747;SDS011;1889;50.058;8.688;2022-10-22T16:44:21;4.00;;;1.00;;
3747;SDS011;1889;50.058;8.688;2022-10-22T16:46:50;1.37;;;1.02;;
3747;SDS011;1889;50.058;8.688;2022-10-22T16:49:19;3.87;;;1.43;;
3747;SDS011;1889;50.058;8.688;2022-10-22T16:51:48;1.57;;;0.87;;
3747;SDS011;1889;50.058;8.688;2022-10-22T16:54:17;4.08;;;1.15;;
3747;SDS011;1889;50.058;8.688;2022-10-22T16:56:47;2.03;;;1.40;;
3747;SDS011;1889;50.058;8.688;2022-10-22T16:59:16;3.23;;;1.43;;
3747;SDS011;1889;50.058;8.688;2022-10-22T17:01:46;3.40;;;1.72;;
3747;SDS011;1889;50.058;8.688;2022-10-22T17:04:15;3.10;;;1.50;;
3747;SDS011;1889;50.058;8.688;2022-10-22T17:06:45;6.83;;;3.55;;
3747;SDS011;1889;50.058;8.688;2022-10-22T17:09:14;1.92;;;1.40;;
3747;SDS011;1889;50.058;8.688;2022-10-22T17:11:43;3.40;;;1.37;;